sensor_id;sensor_type;location;lat;lon;timestamp;P1;durP1;ratioP1;P2;durP2;ratioP2
3755;SDS011;1893;52.526;13.360;2023-06-26T00:00:19;15.60;;;13.80;;
3755;SDS011;1893;52.526;13.360;2023-06-26T00:02:45;16.57;;;13.17;;
3755;SDS011;1893;52.526;13.360;2023-06-26T00:05:11;16.00;;;13.80;;
3755;SDS011;1893;52.526;13.360;2023-06-26T00:07:37;19.53;;;13.30;;
3755;SDS011;1893;52.526;13.360;2023-06-26T00:10:03;14.73;;;13.23;;
3755;SDS011;1893;52.526;13.360;2023-06-26T00:12:29;15.27;;;13.80;;
3755;SDS011;1893;52.526;13.360;2023-06-26T00:14:55;16.83;;;13.67;;
3755;SDS011;1893;52.526;13.360;2023-06-26T00:17:21;15.20;;;13.40;;
3755;SDS011;1893;52.526;13.360;2023-06-26T00:19:47;16.13;;;12.67;;
3755;SDS011;1893;52.526;13.360;2023-06-26T00:22:14;14.40;;;12.90;;
3755;SDS011;1893;52.526;13.360;2023-06-26T00:24:39;15.23;;;13.73;;
3755;SDS011;1893;52.526;13.360;2023-06-26T00:27:05;14.23;;;12.83;;
3755;SDS011;1893;52.526;13.360;2023-06-26T00:29:31;15.23;;;13.57;;
3755;SDS011;1893;52.526;13.360;2023-06-26T00:31:56;13.63;;;12.33;;
3755;SDS011;1893;52.526;13.360;2023-06-26T00:34:22;15.17;;;12.80;;
3755;SDS011;1893;52.526;13.360;2023-06-26T00:36:48;17.07;;;12.90;;
3755;SDS011;1893;52.526;13.360;2023-06-26T00:39:13;16.07;;;14.13;;
3755;SDS011;1893;52.526;13.360;2023-06-26T00:41:39;16.67;;;14.37;;
3755;SDS011;1893;52.526;13.360;2023-06-26T00:44:05;16.13;;;13.47;;
3755;SDS011;1893;52.526;13.360;2023-06-26T00:46:31;18.17;;;15.23;;
3755;SDS011;1893;52.526;13.360;2023-06-26T00:48:58;19.27;;;14.83;;
3755;SDS011;1893;52.526;13.360;2023-06-26T00:51:28;21.40;;;17.07;;
3755;SDS011;1893;52.526;13.360;2023-06-26T00:53:54;17.13;;;14.30;;
3755;SDS011;1893;52.526;13.360;2023-06-26T00:56:21;16.20;;;14.50;;
3755;SDS011;1893;52.526;13.360;2023-06-26T00:58:47;19.90;;;15.37;;
3755;SDS011;1893;52.526;13.360;2023-06-26T01:01:13;14.93;;;13.33;;
3755;SDS011;1893;52.526;13.360;2023-06-26T01:03:45;17.73;;;14.80;;
3755;SDS011;1893;52.526;13.360;2023-06-26T01:06:16;16.03;;;14.27;;
3755;SDS011;1893;52.526;13.360;2023-06-26T01:08:43;14.13;;;12.73;;
3755;SDS011;1893;52.526;13.360;2023-06-26T01:11:10;14.93;;;13.43;;
3755;SDS011;1893;52.526;13.360;2023-06-26T01:13:38;16.97;;;14.30;;
3755;SDS011;1893;52.526;13.360;2023-06-26T01:16:05;14.40;;;12.93;;
3755;SDS011;1893;52.526;13.360;2023-06-26T01:18:31;15.53;;;13.60;;
3755;SDS011;1893;52.526;13.360;2023-06-26T01:20:58;17.77;;;14.83;;
3755;SDS011;1893;52.526;13.360;2023-06-26T01:23:37;16.10;;;13.97;;
3755;SDS011;1893;52.526;13.360;2023-06-26T01:26:29;16.23;;;13.37;;
3755;SDS011;1893;52.526;13.360;2023-06-26T01:29:00;15.60;;;14.00;;
3755;SDS011;1893;52.526;13.360;2023-06-26T01:31:29;17.03;;;14.33;;
3755;SDS011;1893;52.526;13.360;2023-06-26T01:33:56;14.83;;;13.33;;
3755;SDS011;1893;52.526;13.360;2023-06-26T01:36:24;15.97;;;14.33;;
3755;SDS011;1893;52.526;13.360;2023-06-26T01:38:50;15.17;;;13.57;;
3755;SDS011;1893;52.526;13.360;2023-06-26T01:41:16;14.90;;;13.40;;
3755;SDS011;1893;52.526;13.360;2023-06-26T01:43:58;15.90;;;14.20;;
3755;SDS011;1893;52.526;13.360;2023-06-26T01:46:38;15.80;;;14.10;;
3755;SDS011;1893;52.526;13.360;2023-06-26T01:51:46;14.50;;;13.00;;
3755;SDS011;1893;52.526;13.360;2023-06-26T01:54:17;16.53;;;14.70;;
3755;SDS011;1893;52.526;13.360;2023-06-26T01:56:45;15.67;;;14.10;;
3755;SDS011;1893;52.526;13.360;2023-06-26T01:59:13;14.40;;;13.10;;
3755;SDS011;1893;52.526;13.360;2023-06-26T02:01:39;15.10;;;13.50;;
3755;SDS011;1893;52.526;13.360;2023-06-26T02:04:05;14.60;;;13.20;;
3755;SDS011;1893;52.526;13.360;2023-06-26T02:06:31;16.93;;;13.90;;
3755;SDS011;1893;52.526;13.360;2023-06-26T02:08:56;15.50;;;13.87;;
3755;SDS011;1893;52.526;13.360;2023-06-26T02:11:22;15.33;;;13.93;;
3755;SDS011;1893;52.526;13.360;2023-06-26T02:13:48;15.10;;;13.47;;
3755;SDS011;1893;52.526;13.360;2023-06-26T02:16:14;17.17;;;15.37;;
3755;SDS011;1893;52.526;13.360;2023-06-26T02:18:39;14.93;;;13.47;;
3755;SDS011;1893;52.526;13.360;2023-06-26T02:21:06;16.60;;;14.90;;
3755;SDS011;1893;52.526;13.360;2023-06-26T02:23:32;16.37;;;14.87;;
3755;SDS011;1893;52.526;13.360;2023-06-26T02:25:57;18.90;;;15.73;;
3755;SDS011;1893;52.526;13.360;2023-06-26T02:28:23;17.17;;;15.50;;
3755;SDS011;1893;52.526;13.360;2023-06-26T02:30:49;16.03;;;14.40;;
3755;SDS011;1893;52.526;13.360;2023-06-26T02:33:14;16.73;;;15.10;;
3755;SDS011;1893;52.526;13.360;2023-06-26T02:35:40;18.23;;;16.30;;
3755;SDS011;1893;52.526;13.360;2023-06-26T02:38:06;17.27;;;15.57;;
3755;SDS011;1893;52.526;13.360;2023-06-26T02:40:31;16.63;;;14.83;;
3755;SDS011;1893;52.526;13.360;2023-06-26T02:42:58;15.43;;;13.90;;
3755;SDS011;1893;52.526;13.360;2023-06-26T02:45:23;17.13;;;15.43;;
3755;SDS011;1893;52.526;13.360;2023-06-26T02:47:49;17.43;;;15.80;;
3755;SDS011;1893;52.526;13.360;2023-06-26T02:50:15;17.70;;;16.00;;
3755;SDS011;1893;52.526;13.360;2023-06-26T02:52:40;19.73;;;15.90;;
3755;SDS011;1893;52.526;13.360;2023-06-26T02:55:06;18.40;;;15.70;;
3755;SDS011;1893;52.526;13.360;2023-06-26T02:57:32;16.60;;;14.77;;
3755;SDS011;1893;52.526;13.360;2023-06-26T02:59:57;16.20;;;14.70;;
3755;SDS011;1893;52.526;13.360;2023-06-26T03:02:23;19.03;;;16.93;;
3755;SDS011;1893;52.526;13.360;2023-06-26T03:04:48;17.27;;;15.67;;
3755;SDS011;1893;52.526;13.360;2023-06-26T03:07:15;20.30;;;16.47;;
3755;SDS011;1893;52.526;13.360;2023-06-26T03:09:41;18.50;;;16.70;;
3755;SDS011;1893;52.526;13.360;2023-06-26T03:12:06;17.83;;;15.97;;
3755;SDS011;1893;52.526;13.360;2023-06-26T03:14:33;17.33;;;15.63;;
3755;SDS011;1893;52.526;13.360;2023-06-26T03:16:58;19.13;;;15.80;;
3755;SDS011;1893;52.526;13.360;2023-06-26T03:19:28;18.83;;;16.80;;
3755;SDS011;1893;52.526;13.360;2023-06-26T03:21:53;19.63;;;17.60;;
3755;SDS011;1893;52.526;13.360;2023-06-26T03:24:20;18.87;;;16.87;;
3755;SDS011;1893;52.526;13.360;2023-06-26T03:26:45;20.07;;;18.17;;
3755;SDS011;1893;52.526;13.360;2023-06-26T03:29:11;19.07;;;17.03;;
3755;SDS011;1893;52.526;13.360;2023-06-26T03:31:37;21.43;;;18.23;;
3755;SDS011;1893;52.526;13.360;2023-06-26T03:34:02;17.50;;;15.20;;
3755;SDS011;1893;52.526;13.360;2023-06-26T03:36:28;17.77;;;15.70;;
3755;SDS011;1893;52.526;13.360;2023-06-26T03:38:53;18.70;;;16.43;;
3755;SDS011;1893;52.526;13.360;2023-06-26T03:41:22;19.20;;;17.10;;
3755;SDS011;1893;52.526;13.360;2023-06-26T03:43:48;16.80;;;15.00;;
3755;SDS011;1893;52.526;13.360;2023-06-26T03:46:14;21.27;;;15.97;;
3755;SDS011;1893;52.526;13.360;2023-06-26T03:48:39;20.13;;;17.83;;
3755;SDS011;1893;52.526;13.360;2023-06-26T03:51:05;20.10;;;16.30;;
3755;SDS011;1893;52.526;13.360;2023-06-26T03:53:32;17.83;;;16.07;;
3755;SDS011;1893;52.526;13.360;2023-06-26T03:55:58;19.57;;;17.47;;
3755;SDS011;1893;52.526;13.360;2023-06-26T03:58:24;18.87;;;16.23;;
3755;SDS011;1893;52.526;13.360;2023-06-26T04:00:50;17.37;;;15.60;;
3755;SDS011;1893;52.526;13.360;2023-06-26T04:03:15;17.80;;;15.97;;
3755;SDS011;1893;52.526;13.360;2023-06-26T04:05:41;18.40;;;16.50;;
3755;SDS011;1893;52.526;13.360;2023-06-26T04:08:07;18.30;;;16.50;;
3755;SDS011;1893;52.526;13.360;2023-06-26T04:10:33;18.43;;;16.57;;
3755;SDS011;1893;52.526;13.360;2023-06-26T04:12:59;18.37;;;16.50;;
3755;SDS011;1893;52.526;13.360;2023-06-26T04:15:24;18.30;;;16.50;;
3755;SDS011;1893;52.526;13.360;2023-06-26T04:17:50;20.80;;;16.90;;
3755;SDS011;1893;52.526;13.360;2023-06-26T04:20:16;18.40;;;16.80;;
3755;SDS011;1893;52.526;13.360;2023-06-26T04:22:41;17.93;;;16.13;;
3755;SDS011;1893;52.526;13.360;2023-06-26T04:25:07;19.07;;;17.00;;
3755;SDS011;1893;52.526;13.360;2023-06-26T04:27:33;17.10;;;15.40;;
3755;SDS011;1893;52.526;13.360;2023-06-26T04:29:58;18.30;;;16.40;;
3755;SDS011;1893;52.526;13.360;2023-06-26T04:32:24;17.47;;;15.80;;
3755;SDS011;1893;52.526;13.360;2023-06-26T04:34:50;17.43;;;15.63;;
3755;SDS011;1893;52.526;13.360;2023-06-26T04:37:15;20.10;;;15.93;;
3755;SDS011;1893;52.526;13.360;2023-06-26T04:39:43;20.60;;;16.20;;
3755;SDS011;1893;52.526;13.360;2023-06-26T04:42:10;17.20;;;15.50;;
3755;SDS011;1893;52.526;13.360;2023-06-26T04:44:38;17.20;;;15.60;;
3755;SDS011;1893;52.526;13.360;2023-06-26T04:47:06;19.10;;;16.07;;
3755;SDS011;1893;52.526;13.360;2023-06-26T04:49:32;16.73;;;15.13;;
3755;SDS011;1893;52.526;13.360;2023-06-26T04:51:57;18.07;;;15.13;;
3755;SDS011;1893;52.526;13.360;2023-06-26T04:54:25;19.23;;;17.10;;
3755;SDS011;1893;52.526;13.360;2023-06-26T04:56:52;19.07;;;17.07;;
3755;SDS011;1893;52.526;13.360;2023-06-26T04:59:17;18.00;;;16.20;;
3755;SDS011;1893;52.526;13.360;2023-06-26T05:01:43;18.93;;;17.00;;
3755;SDS011;1893;52.526;13.360;2023-06-26T05:04:12;16.43;;;14.87;;
3755;SDS011;1893;52.526;13.360;2023-06-26T05:06:40;16.40;;;14.80;;
3755;SDS011;1893;52.526;13.360;2023-06-26T05:09:06;18.67;;;16.90;;
3755;SDS011;1893;52.526;13.360;2023-06-26T05:11:33;17.03;;;15.33;;
3755;SDS011;1893;52.526;13.360;2023-06-26T05:13:58;17.53;;;15.83;;
3755;SDS011;1893;52.526;13.360;2023-06-26T05:16:24;18.37;;;16.43;;
3755;SDS011;1893;52.526;13.360;2023-06-26T05:18:49;21.50;;;17.33;;
3755;SDS011;1893;52.526;13.360;2023-06-26T05:21:15;19.03;;;17.13;;
3755;SDS011;1893;52.526;13.360;2023-06-26T05:23:41;18.60;;;15.80;;
3755;SDS011;1893;52.526;13.360;2023-06-26T05:26:09;17.00;;;15.40;;
3755;SDS011;1893;52.526;13.360;2023-06-26T05:28:36;18.10;;;16.40;;
3755;SDS011;1893;52.526;13.360;2023-06-26T05:31:02;21.23;;;15.40;;
3755;SDS011;1893;52.526;13.360;2023-06-26T05:33:30;18.63;;;16.63;;
3755;SDS011;1893;52.526;13.360;2023-06-26T05:35:56;17.97;;;16.13;;
3755;SDS011;1893;52.526;13.360;2023-06-26T05:38:24;20.20;;;16.77;;
3755;SDS011;1893;52.526;13.360;2023-06-26T05:40:50;19.37;;;17.47;;
3755;SDS011;1893;52.526;13.360;2023-06-26T05:43:16;16.77;;;14.97;;
3755;SDS011;1893;52.526;13.360;2023-06-26T05:45:45;17.77;;;15.77;;
3755;SDS011;1893;52.526;13.360;2023-06-26T05:48:12;18.73;;;16.70;;
3755;SDS011;1893;52.526;13.360;2023-06-26T05:50:37;18.43;;;16.63;;
3755;SDS011;1893;52.526;13.360;2023-06-26T05:53:05;17.50;;;15.57;;
3755;SDS011;1893;52.526;13.360;2023-06-26T05:55:31;17.17;;;15.43;;
3755;SDS011;1893;52.526;13.360;2023-06-26T05:57:58;19.83;;;17.67;;
3755;SDS011;1893;52.526;13.360;2023-06-26T06:00:24;21.03;;;16.47;;
3755;SDS011;1893;52.526;13.360;2023-06-26T06:02:51;17.33;;;15.47;;
3755;SDS011;1893;52.526;13.360;2023-06-26T06:05:19;16.83;;;14.17;;
3755;SDS011;1893;52.526;13.360;2023-06-26T06:07:47;17.73;;;14.97;;
3755;SDS011;1893;52.526;13.360;2023-06-26T06:10:13;16.07;;;14.40;;
3755;SDS011;1893;52.526;13.360;2023-06-26T06:12:39;15.17;;;13.60;;
3755;SDS011;1893;52.526;13.360;2023-06-26T06:15:05;15.23;;;13.50;;
3755;SDS011;1893;52.526;13.360;2023-06-26T06:17:31;16.00;;;13.80;;
3755;SDS011;1893;52.526;13.360;2023-06-26T06:19:57;14.17;;;12.67;;
3755;SDS011;1893;52.526;13.360;2023-06-26T06:22:22;13.53;;;12.13;;
3755;SDS011;1893;52.526;13.360;2023-06-26T06:24:48;13.57;;;12.27;;
3755;SDS011;1893;52.526;13.360;2023-06-26T06:27:15;13.27;;;12.00;;
3755;SDS011;1893;52.526;13.360;2023-06-26T06:29:41;13.17;;;10.53;;
3755;SDS011;1893;52.526;13.360;2023-06-26T06:32:07;13.00;;;11.70;;
3755;SDS011;1893;52.526;13.360;2023-06-26T06:34:33;12.80;;;11.60;;
3755;SDS011;1893;52.526;13.360;2023-06-26T06:36:58;12.37;;;10.70;;
3755;SDS011;1893;52.526;13.360;2023-06-26T06:39:24;14.30;;;11.17;;
3755;SDS011;1893;52.526;13.360;2023-06-26T06:41:50;12.80;;;10.13;;
3755;SDS011;1893;52.526;13.360;2023-06-26T06:44:15;10.70;;;9.53;;
3755;SDS011;1893;52.526;13.360;2023-06-26T06:46:41;9.63;;;8.57;;
3755;SDS011;1893;52.526;13.360;2023-06-26T06:49:08;9.67;;;8.57;;
3755;SDS011;1893;52.526;13.360;2023-06-26T06:51:34;10.93;;;9.20;;
3755;SDS011;1893;52.526;13.360;2023-06-26T06:53:59;9.20;;;7.50;;
3755;SDS011;1893;52.526;13.360;2023-06-26T06:56:25;9.80;;;8.23;;
3755;SDS011;1893;52.526;13.360;2023-06-26T06:58:51;9.10;;;8.20;;
3755;SDS011;1893;52.526;13.360;2023-06-26T07:01:17;8.90;;;8.10;;
3755;SDS011;1893;52.526;13.360;2023-06-26T07:03:42;14.40;;;8.47;;
3755;SDS011;1893;52.526;13.360;2023-06-26T07:06:08;8.10;;;7.40;;
3755;SDS011;1893;52.526;13.360;2023-06-26T07:08:33;9.80;;;7.43;;
3755;SDS011;1893;52.526;13.360;2023-06-26T07:11:00;10.53;;;8.30;;
3755;SDS011;1893;52.526;13.360;2023-06-26T07:13:26;8.67;;;7.97;;
3755;SDS011;1893;52.526;13.360;2023-06-26T07:15:52;16.40;;;8.60;;
3755;SDS011;1893;52.526;13.360;2023-06-26T07:18:17;9.50;;;8.33;;
3755;SDS011;1893;52.526;13.360;2023-06-26T07:20:43;10.80;;;9.03;;
3755;SDS011;1893;52.526;13.360;2023-06-26T07:23:09;9.10;;;8.30;;
3755;SDS011;1893;52.526;13.360;2023-06-26T07:25:35;8.50;;;7.50;;
3755;SDS011;1893;52.526;13.360;2023-06-26T07:28:01;8.83;;;8.00;;
3755;SDS011;1893;52.526;13.360;2023-06-26T07:30:26;8.23;;;7.53;;
3755;SDS011;1893;52.526;13.360;2023-06-26T07:32:52;9.13;;;8.20;;
3755;SDS011;1893;52.526;13.360;2023-06-26T07:35:18;9.90;;;7.97;;
3755;SDS011;1893;52.526;13.360;2023-06-26T07:37:43;8.80;;;7.90;;
3755;SDS011;1893;52.526;13.360;2023-06-26T07:40:10;8.77;;;7.80;;
3755;SDS011;1893;52.526;13.360;2023-06-26T07:42:35;10.40;;;8.50;;
3755;SDS011;1893;52.526;13.360;2023-06-26T07:45:01;8.07;;;7.10;;
3755;SDS011;1893;52.526;13.360;2023-06-26T07:47:30;7.50;;;6.60;;
3755;SDS011;1893;52.526;13.360;2023-06-26T07:49:55;7.37;;;6.50;;
3755;SDS011;1893;52.526;13.360;2023-06-26T07:52:21;8.60;;;6.50;;
3755;SDS011;1893;52.526;13.360;2023-06-26T07:54:46;11.13;;;6.37;;
3755;SDS011;1893;52.526;13.360;2023-06-26T07:57:12;8.50;;;6.03;;
3755;SDS011;1893;52.526;13.360;2023-06-26T07:59:38;7.10;;;6.50;;
3755;SDS011;1893;52.526;13.360;2023-06-26T08:02:04;7.60;;;6.53;;
3755;SDS011;1893;52.526;13.360;2023-06-26T08:04:30;7.03;;;6.43;;
3755;SDS011;1893;52.526;13.360;2023-06-26T08:06:57;8.00;;;7.20;;
3755;SDS011;1893;52.526;13.360;2023-06-26T08:09:26;7.10;;;6.50;;
3755;SDS011;1893;52.526;13.360;2023-06-26T08:11:53;8.17;;;6.00;;
3755;SDS011;1893;52.526;13.360;2023-06-26T08:14:19;6.50;;;5.90;;
3755;SDS011;1893;52.526;13.360;2023-06-26T08:16:46;6.83;;;5.70;;
3755;SDS011;1893;52.526;13.360;2023-06-26T08:19:13;6.37;;;5.77;;
3755;SDS011;1893;52.526;13.360;2023-06-26T08:21:40;14.80;;;7.03;;
3755;SDS011;1893;52.526;13.360;2023-06-26T08:24:06;6.17;;;5.57;;
3755;SDS011;1893;52.526;13.360;2023-06-26T08:26:32;6.77;;;6.20;;
3755;SDS011;1893;52.526;13.360;2023-06-26T08:28:57;7.20;;;5.90;;
3755;SDS011;1893;52.526;13.360;2023-06-26T08:31:23;6.83;;;6.13;;
3755;SDS011;1893;52.526;13.360;2023-06-26T08:33:48;6.20;;;5.70;;
3755;SDS011;1893;52.526;13.360;2023-06-26T08:36:14;6.30;;;5.23;;
3755;SDS011;1893;52.526;13.360;2023-06-26T08:38:40;6.37;;;5.77;;
3755;SDS011;1893;52.526;13.360;2023-06-26T08:41:07;6.20;;;5.40;;
3755;SDS011;1893;52.526;13.360;2023-06-26T08:43:33;5.93;;;5.43;;
3755;SDS011;1893;52.526;13.360;2023-06-26T08:46:00;6.77;;;6.17;;
3755;SDS011;1893;52.526;13.360;2023-06-26T08:48:25;7.57;;;6.33;;
3755;SDS011;1893;52.526;13.360;2023-06-26T08:50:53;5.50;;;4.93;;
3755;SDS011;1893;52.526;13.360;2023-06-26T08:53:28;5.50;;;5.00;;
3755;SDS011;1893;52.526;13.360;2023-06-26T08:55:58;6.50;;;5.90;;
3755;SDS011;1893;52.526;13.360;2023-06-26T08:58:25;6.10;;;5.50;;
3755;SDS011;1893;52.526;13.360;2023-06-26T09:00:50;5.50;;;5.10;;
3755;SDS011;1893;52.526;13.360;2023-06-26T09:03:17;7.40;;;6.03;;
3755;SDS011;1893;52.526;13.360;2023-06-26T09:05:43;5.90;;;5.40;;
3755;SDS011;1893;52.526;13.360;2023-06-26T09:08:08;6.57;;;5.80;;
3755;SDS011;1893;52.526;13.360;2023-06-26T09:10:34;5.37;;;4.87;;
3755;SDS011;1893;52.526;13.360;2023-06-26T09:13:02;5.53;;;5.10;;
3755;SDS011;1893;52.526;13.360;2023-06-26T09:15:36;6.37;;;5.77;;
3755;SDS011;1893;52.526;13.360;2023-06-26T09:18:12;5.60;;;5.20;;
3755;SDS011;1893;52.526;13.360;2023-06-26T09:20:38;5.00;;;4.57;;
3755;SDS011;1893;52.526;13.360;2023-06-26T09:23:04;5.37;;;4.90;;
3755;SDS011;1893;52.526;13.360;2023-06-26T09:25:30;5.20;;;4.80;;
3755;SDS011;1893;52.526;13.360;2023-06-26T09:27:56;7.50;;;5.70;;
3755;SDS011;1893;52.526;13.360;2023-06-26T09:30:22;6.20;;;5.17;;
3755;SDS011;1893;52.526;13.360;2023-06-26T09:32:48;5.20;;;4.70;;
3755;SDS011;1893;52.526;13.360;2023-06-26T09:35:15;5.67;;;5.17;;
3755;SDS011;1893;52.526;13.360;2023-06-26T09:37:41;6.70;;;6.10;;
3755;SDS011;1893;52.526;13.360;2023-06-26T09:40:07;5.00;;;4.53;;
3755;SDS011;1893;52.526;13.360;2023-06-26T09:42:34;5.27;;;4.70;;
3755;SDS011;1893;52.526;13.360;2023-06-26T09:45:00;5.13;;;4.73;;
3755;SDS011;1893;52.526;13.360;2023-06-26T09:47:26;4.23;;;3.90;;
3755;SDS011;1893;52.526;13.360;2023-06-26T09:49:59;7.77;;;4.70;;
3755;SDS011;1893;52.526;13.360;2023-06-26T09:52:26;4.50;;;4.10;;
3755;SDS011;1893;52.526;13.360;2023-06-26T09:55:07;4.10;;;3.67;;
3755;SDS011;1893;52.526;13.360;2023-06-26T09:57:34;4.10;;;3.90;;
3755;SDS011;1893;52.526;13.360;2023-06-26T10:00:00;4.97;;;4.13;;
3755;SDS011;1893;52.526;13.360;2023-06-26T10:02:26;5.33;;;4.87;;
3755;SDS011;1893;52.526;13.360;2023-06-26T10:04:52;4.63;;;4.20;;
3755;SDS011;1893;52.526;13.360;2023-06-26T10:07:18;5.43;;;4.90;;
3755;SDS011;1893;52.526;13.360;2023-06-26T10:09:45;4.17;;;3.77;;
3755;SDS011;1893;52.526;13.360;2023-06-26T10:12:17;4.67;;;4.37;;
3755;SDS011;1893;52.526;13.360;2023-06-26T10:14:45;5.13;;;4.63;;
3755;SDS011;1893;52.526;13.360;2023-06-26T10:17:14;5.50;;;4.60;;
3755;SDS011;1893;52.526;13.360;2023-06-26T10:19:43;5.03;;;4.63;;
3755;SDS011;1893;52.526;13.360;2023-06-26T10:22:10;5.30;;;4.83;;
3755;SDS011;1893;52.526;13.360;2023-06-26T10:24:38;5.53;;;5.03;;
3755;SDS011;1893;52.526;13.360;2023-06-26T10:27:11;5.23;;;4.73;;
3755;SDS011;1893;52.526;13.360;2023-06-26T10:29:42;5.27;;;4.77;;
3755;SDS011;1893;52.526;13.360;2023-06-26T10:32:14;5.40;;;5.00;;
3755;SDS011;1893;52.526;13.360;2023-06-26T10:34:41;6.00;;;4.70;;
3755;SDS011;1893;52.526;13.360;2023-06-26T10:37:08;4.40;;;4.10;;
3755;SDS011;1893;52.526;13.360;2023-06-26T10:39:45;4.83;;;4.43;;
3755;SDS011;1893;52.526;13.360;2023-06-26T10:42:13;4.77;;;4.47;;
3755;SDS011;1893;52.526;13.360;2023-06-26T10:44:42;5.20;;;4.80;;
3755;SDS011;1893;52.526;13.360;2023-06-26T10:47:11;5.20;;;4.80;;
3755;SDS011;1893;52.526;13.360;2023-06-26T10:49:53;6.90;;;5.77;;
3755;SDS011;1893;52.526;13.360;2023-06-26T10:52:19;5.13;;;4.73;;
3755;SDS011;1893;52.526;13.360;2023-06-26T10:54:44;5.27;;;4.97;;
3755;SDS011;1893;52.526;13.360;2023-06-26T10:57:10;5.10;;;4.80;;
3755;SDS011;1893;52.526;13.360;2023-06-26T10:59:38;5.83;;;5.40;;
3755;SDS011;1893;52.526;13.360;2023-06-26T11:02:05;5.53;;;5.13;;
3755;SDS011;1893;52.526;13.360;2023-06-26T11:04:43;5.90;;;5.40;;
3755;SDS011;1893;52.526;13.360;2023-06-26T11:07:16;5.60;;;5.20;;
3755;SDS011;1893;52.526;13.360;2023-06-26T11:15:03;9.27;;;4.40;;
3755;SDS011;1893;52.526;13.360;2023-06-26T11:17:33;5.07;;;4.60;;
3755;SDS011;1893;52.526;13.360;2023-06-26T11:20:00;5.70;;;5.27;;
3755;SDS011;1893;52.526;13.360;2023-06-26T11:22:26;5.00;;;4.60;;
3755;SDS011;1893;52.526;13.360;2023-06-26T11:24:53;5.07;;;4.60;;
3755;SDS011;1893;52.526;13.360;2023-06-26T11:27:19;5.17;;;4.87;;
3755;SDS011;1893;52.526;13.360;2023-06-26T11:29:48;5.87;;;5.47;;
3755;SDS011;1893;52.526;13.360;2023-06-26T11:32:17;6.90;;;5.97;;
3755;SDS011;1893;52.526;13.360;2023-06-26T11:34:42;5.50;;;5.10;;
3755;SDS011;1893;52.526;13.360;2023-06-26T11:37:09;5.20;;;4.70;;
3755;SDS011;1893;52.526;13.360;2023-06-26T11:39:34;5.53;;;5.23;;
3755;SDS011;1893;52.526;13.360;2023-06-26T11:42:02;6.00;;;5.60;;
3755;SDS011;1893;52.526;13.360;2023-06-26T11:44:30;5.30;;;4.90;;
3755;SDS011;1893;52.526;13.360;2023-06-26T11:46:57;5.03;;;4.60;;
3755;SDS011;1893;52.526;13.360;2023-06-26T11:49:23;5.80;;;5.30;;
3755;SDS011;1893;52.526;13.360;2023-06-26T11:51:51;7.70;;;5.97;;
3755;SDS011;1893;52.526;13.360;2023-06-26T11:54:26;6.00;;;5.50;;
3755;SDS011;1893;52.526;13.360;2023-06-26T11:56:52;5.83;;;4.60;;
3755;SDS011;1893;52.526;13.360;2023-06-26T11:59:23;5.07;;;4.67;;
3755;SDS011;1893;52.526;13.360;2023-06-26T12:01:49;6.40;;;5.90;;
3755;SDS011;1893;52.526;13.360;2023-06-26T12:04:17;9.30;;;5.80;;
3755;SDS011;1893;52.526;13.360;2023-06-26T12:06:48;5.77;;;5.27;;
3755;SDS011;1893;52.526;13.360;2023-06-26T12:09:18;5.93;;;5.47;;
3755;SDS011;1893;52.526;13.360;2023-06-26T12:11:44;6.47;;;5.87;;
3755;SDS011;1893;52.526;13.360;2023-06-26T12:14:13;6.03;;;5.60;;
3755;SDS011;1893;52.526;13.360;2023-06-26T12:16:40;6.60;;;6.00;;
3755;SDS011;1893;52.526;13.360;2023-06-26T12:19:07;6.13;;;5.63;;
3755;SDS011;1893;52.526;13.360;2023-06-26T12:23:59;7.50;;;6.23;;
3755;SDS011;1893;52.526;13.360;2023-06-26T12:26:26;11.10;;;6.13;;
3755;SDS011;1893;52.526;13.360;2023-06-26T12:28:54;6.93;;;6.20;;
3755;SDS011;1893;52.526;13.360;2023-06-26T12:31:29;7.80;;;5.40;;
3755;SDS011;1893;52.526;13.360;2023-06-26T12:33:56;7.03;;;6.00;;
3755;SDS011;1893;52.526;13.360;2023-06-26T12:36:21;8.80;;;7.43;;
3755;SDS011;1893;52.526;13.360;2023-06-26T12:38:48;6.97;;;6.10;;
3755;SDS011;1893;52.526;13.360;2023-06-26T12:41:14;6.33;;;5.80;;
3755;SDS011;1893;52.526;13.360;2023-06-26T12:43:41;6.57;;;6.00;;
3755;SDS011;1893;52.526;13.360;2023-06-26T12:46:07;7.43;;;6.73;;
3755;SDS011;1893;52.526;13.360;2023-06-26T12:48:39;6.90;;;6.20;;
3755;SDS011;1893;52.526;13.360;2023-06-26T12:51:10;7.27;;;6.77;;
3755;SDS011;1893;52.526;13.360;2023-06-26T12:53:37;7.43;;;6.30;;
3755;SDS011;1893;52.526;13.360;2023-06-26T12:56:05;6.67;;;6.07;;
3755;SDS011;1893;52.526;13.360;2023-06-26T12:58:31;7.90;;;7.10;;
3755;SDS011;1893;52.526;13.360;2023-06-26T13:00:57;6.77;;;6.27;;
3755;SDS011;1893;52.526;13.360;2023-06-26T13:03:23;9.70;;;6.73;;
3755;SDS011;1893;52.526;13.360;2023-06-26T13:05:49;7.90;;;7.20;;
3755;SDS011;1893;52.526;13.360;2023-06-26T13:08:14;7.50;;;6.80;;
3755;SDS011;1893;52.526;13.360;2023-06-26T13:10:42;7.90;;;7.10;;
3755;SDS011;1893;52.526;13.360;2023-06-26T13:13:09;7.43;;;6.83;;
3755;SDS011;1893;52.526;13.360;2023-06-26T13:15:35;7.93;;;7.13;;
3755;SDS011;1893;52.526;13.360;2023-06-26T13:18:01;8.43;;;7.67;;
3755;SDS011;1893;52.526;13.360;2023-06-26T13:20:27;8.20;;;7.40;;
3755;SDS011;1893;52.526;13.360;2023-06-26T13:22:53;7.30;;;6.80;;
3755;SDS011;1893;52.526;13.360;2023-06-26T13:25:19;6.97;;;6.40;;
3755;SDS011;1893;52.526;13.360;2023-06-26T13:27:45;10.53;;;7.83;;
3755;SDS011;1893;52.526;13.360;2023-06-26T13:30:11;7.47;;;6.87;;
3755;SDS011;1893;52.526;13.360;2023-06-26T13:32:37;7.70;;;7.10;;
3755;SDS011;1893;52.526;13.360;2023-06-26T13:35:03;8.07;;;7.27;;
3755;SDS011;1893;52.526;13.360;2023-06-26T13:37:29;8.80;;;7.37;;
3755;SDS011;1893;52.526;13.360;2023-06-26T13:39:55;9.07;;;7.70;;
3755;SDS011;1893;52.526;13.360;2023-06-26T13:42:23;8.23;;;7.50;;
3755;SDS011;1893;52.526;13.360;2023-06-26T13:44:48;9.53;;;8.23;;
3755;SDS011;1893;52.526;13.360;2023-06-26T13:47:14;7.93;;;7.10;;
3755;SDS011;1893;52.526;13.360;2023-06-26T13:49:40;7.90;;;7.20;;
3755;SDS011;1893;52.526;13.360;2023-06-26T13:52:06;8.63;;;7.70;;
3755;SDS011;1893;52.526;13.360;2023-06-26T13:54:37;8.20;;;7.50;;
3755;SDS011;1893;52.526;13.360;2023-06-26T13:57:05;8.53;;;7.80;;
3755;SDS011;1893;52.526;13.360;2023-06-26T13:59:31;7.90;;;7.20;;
3755;SDS011;1893;52.526;13.360;2023-06-26T14:01:57;8.50;;;7.63;;
3755;SDS011;1893;52.526;13.360;2023-06-26T14:04:24;9.00;;;8.20;;
3755;SDS011;1893;52.526;13.360;2023-06-26T14:06:49;8.60;;;7.90;;
3755;SDS011;1893;52.526;13.360;2023-06-26T14:09:15;13.63;;;12.20;;
3755;SDS011;1893;52.526;13.360;2023-06-26T14:11:41;9.00;;;7.73;;
3755;SDS011;1893;52.526;13.360;2023-06-26T14:14:07;9.33;;;8.50;;
3755;SDS011;1893;52.526;13.360;2023-06-26T14:16:33;10.57;;;7.17;;
3755;SDS011;1893;52.526;13.360;2023-06-26T14:18:59;10.27;;;7.63;;
3755;SDS011;1893;52.526;13.360;2023-06-26T14:21:25;8.47;;;7.67;;
3755;SDS011;1893;52.526;13.360;2023-06-26T14:23:52;11.40;;;8.67;;
3755;SDS011;1893;52.526;13.360;2023-06-26T14:26:18;12.57;;;9.07;;
3755;SDS011;1893;52.526;13.360;2023-06-26T14:28:44;23.20;;;8.57;;
3755;SDS011;1893;52.526;13.360;2023-06-26T14:31:10;8.33;;;5.03;;
3755;SDS011;1893;52.526;13.360;2023-06-26T14:33:35;5.40;;;4.90;;
3755;SDS011;1893;52.526;13.360;2023-06-26T14:36:01;12.13;;;5.50;;
3755;SDS011;1893;52.526;13.360;2023-06-26T14:38:27;8.20;;;5.60;;
3755;SDS011;1893;52.526;13.360;2023-06-26T14:40:53;11.07;;;8.03;;
3755;SDS011;1893;52.526;13.360;2023-06-26T14:43:18;12.40;;;8.23;;
3755;SDS011;1893;52.526;13.360;2023-06-26T14:45:44;12.93;;;8.00;;
3755;SDS011;1893;52.526;13.360;2023-06-26T14:48:10;15.03;;;9.17;;
3755;SDS011;1893;52.526;13.360;2023-06-26T14:50:35;13.80;;;10.23;;
3755;SDS011;1893;52.526;13.360;2023-06-26T14:53:01;16.83;;;11.30;;
3755;SDS011;1893;52.526;13.360;2023-06-26T14:55:27;19.40;;;13.30;;